Time;durP1;ratioP1;P1;durP2;ratioP2;P2;SDS_P1;SDS_P2;PMS_P1;PMS_P2;Temp;Humidity;BMP_temperature;BMP_pressure;BME280_temperature;BME280_humidity;BME280_pressure;Samples;Min_cycle;Max_cycle;Signal;HPM_P1;HPM_P2
2024/02/04 00:04:06;;;;;;;0.50;0.50;;;;;;;9.24;68.01;100777.94;10293337;28;20061;-76
2024/02/04 00:09:08;;;;;;;0.20;0.20;;;;;;;9.26;67.75;100769.09;10302060;28;20049;-76
2024/02/04 00:14:10;;;;;;;0.32;0.32;;;;;;;9.21;67.80;100772.81;10316009;28;20058;-76
2024/02/04 00:19:12;;;;;;;0.38;0.38;;;;;;;9.16;67.92;100759.94;10308450;28;20109;-76
2024/02/04 00:24:14;;;;;;;0.40;0.35;;;;;;;9.10;68.01;100739.31;10320412;28;20054;-76
2024/02/04 00:29:16;;;;;;;0.52;0.40;;;;;;;9.12;67.79;100726.22;10341499;28;20108;-76
2024/02/04 00:34:18;;;;;;;0.50;0.45;;;;;;;9.11;67.77;100734.97;10317916;28;20100;-76
2024/02/04 00:39:21;;;;;;;0.20;0.20;;;;;;;9.17;67.35;100730.34;10301028;28;20132;-76
2024/02/04 00:44:23;;;;;;;0.40;0.40;;;;;;;9.10;67.75;100751.50;10300333;28;20133;-76
2024/02/04 00:49:26;;;;;;;0.43;0.40;;;;;;;9.17;67.20;100751.22;10321996;28;20050;-76
2024/02/04 00:54:28;;;;;;;0.28;0.28;;;;;;;9.15;67.41;100744.38;10311256;28;20043;-76
2024/02/04 00:59:31;;;;;;;0.30;0.30;;;;;;;9.11;67.70;100753.22;10312506;28;20488;-76
2024/02/04 01:04:33;;;;;;;1.77;0.43;;;;;;;9.18;67.61;100757.31;10315548;28;20730;-76
2024/02/04 01:09:35;;;;;;;0.30;0.30;;;;;;;9.29;67.37;100758.53;10315340;28;20076;-76
2024/02/04 01:14:37;;;;;;;2.92;0.50;;;;;;;9.22;67.82;100775.34;10306558;28;20057;-76
2024/02/04 01:19:39;;;;;;;0.40;0.40;;;;;;;9.25;67.64;100764.81;10313709;28;20455;-76
2024/02/04 01:24:42;;;;;;;1.25;0.75;;;;;;;9.26;67.65;100782.16;10323760;28;20058;-76
2024/02/04 01:29:44;;;;;;;0.20;0.20;;;;;;;9.09;68.50;100782.00;10334382;28;20150;-76
2024/02/04 01:34:46;;;;;;;0.20;0.20;;;;;;;8.99;68.83;100770.25;10314133;28;20165;-76
2024/02/04 01:39:48;;;;;;;0.30;0.30;;;;;;;8.91;69.12;100747.97;10337904;28;20046;-76
2024/02/04 01:44:51;;;;;;;1.15;0.40;;;;;;;8.97;68.99;100764.22;10306271;28;20062;-76
2024/02/04 01:49:53;;;;;;;0.22;0.22;;;;;;;8.88;69.29;100755.91;10302714;28;20046;-76
2024/02/04 01:54:55;;;;;;;0.25;0.25;;;;;;;8.95;69.23;100745.19;10323178;28;20058;-76
2024/02/04 01:59:58;;;;;;;0.20;0.20;;;;;;;8.89;69.70;100745.44;10323140;28;20137;-76
2024/02/04 02:05:00;;;;;;;0.52;0.40;;;;;;;8.87;69.84;100742.03;10321205;28;20053;-76
2024/02/04 02:10:05;;;;;;;0.20;0.20;;;;;;;8.83;70.28;100730.84;10335957;28;20038;-76
2024/02/04 02:15:21;;;;;;;0.30;0.30;;;;;;;8.96;69.62;100732.97;10318792;28;20046;-76
2024/02/04 02:20:30;;;;;;;0.20;0.20;;;;;;;8.87;70.21;100722.91;10305841;28;20177;-76
2024/02/04 02:25:35;;;;;;;0.20;0.20;;;;;;;8.87;69.89;100715.09;10324461;28;20058;-76
2024/02/04 02:30:37;;;;;;;0.20;0.20;;;;;;;8.79;70.58;100712.81;10306320;28;20150;-76
2024/02/04 02:35:40;;;;;;;0.30;0.30;;;;;;;8.79;70.27;100697.97;10303360;28;20070;-76
2024/02/04 02:40:51;;;;;;;0.30;0.30;;;;;;;8.78;70.72;100703.25;10324425;28;20054;-76
2024/02/04 02:45:53;;;;;;;0.32;0.32;;;;;;;8.74;70.68;100693.88;10315385;28;20062;-76
2024/02/04 02:50:55;;;;;;;0.30;0.30;;;;;;;8.53;72.04;100692.09;10304743;28;20054;-77
2024/02/04 02:55:57;;;;;;;0.10;0.10;;;;;;;8.50;72.01;100687.88;10316642;28;20056;-77
2024/02/04 03:00:59;;;;;;;0.30;0.30;;;;;;;8.51;72.04;100691.31;10313263;28;20114;-77
2024/02/04 03:06:02;;;;;;;0.25;0.25;;;;;;;8.63;71.88;100683.00;10295618;28;20416;-76
2024/02/04 03:11:04;;;;;;;0.20;0.20;;;;;;;8.60;71.72;100683.13;10312269;28;20739;-77
2024/02/04 03:16:11;;;;;;;0.30;0.30;;;;;;;8.48;72.39;100696.66;10294682;28;20062;-77
2024/02/04 03:21:17;;;;;;;2.30;0.30;;;;;;;8.59;71.81;100678.81;10303053;28;20052;-76
2024/02/04 03:26:19;;;;;;;0.20;0.20;;;;;;;8.61;71.81;100671.78;10292865;28;20065;-76
2024/02/04 03:31:23;;;;;;;0.60;0.30;;;;;;;8.51;72.39;100666.09;10277595;28;20038;-76
2024/02/04 03:36:27;;;;;;;0.13;0.13;;;;;;;8.56;72.21;100676.34;10308619;28;20133;-76
2024/02/04 03:41:29;;;;;;;0.40;0.40;;;;;;;8.48;72.54;100671.44;10276682;28;20042;-76
2024/02/04 03:46:32;;;;;;;0.30;0.30;;;;;;;8.65;71.79;100675.97;10269004;28;20132;-78
2024/02/04 03:51:34;;;;;;;0.30;0.30;;;;;;;8.64;71.74;100676.88;10307061;28;20920;-78
2024/02/04 03:56:37;;;;;;;1.15;0.52;;;;;;;8.64;71.79;100675.13;10291271;28;20046;-78
2024/02/04 04:01:39;;;;;;;0.25;0.25;;;;;;;8.72;71.45;100667.84;10304614;28;20171;-78
2024/02/04 04:06:43;;;;;;;0.13;0.13;;;;;;;8.52;72.38;100672.16;10305376;28;20504;-78
2024/02/04 04:11:45;;;;;;;0.20;0.20;;;;;;;8.73;71.45;100661.72;10316921;28;20569;-78
2024/02/04 04:16:47;;;;;;;0.17;0.17;;;;;;;8.70;71.35;100661.00;10310434;28;20058;-77
2024/02/04 04:21:49;;;;;;;0.13;0.13;;;;;;;8.69;71.55;100659.28;10291143;28;20101;-78
2024/02/04 04:26:51;;;;;;;1.20;0.30;;;;;;;8.75;71.33;100666.88;10306107;28;20061;-78
2024/02/04 04:31:53;;;;;;;0.20;0.20;;;;;;;8.75;71.36;100670.31;10288122;28;20084;-78
2024/02/04 04:36:55;;;;;;;0.30;0.30;;;;;;;8.80;71.06;100672.75;10306173;28;20065;-78
2024/02/04 04:41:57;;;;;;;1.88;0.35;;;;;;;8.86;71.12;100667.28;10304235;28;20530;-78
2024/02/04 04:46:59;;;;;;;0.30;0.30;;;;;;;8.92;70.70;100669.63;10291439;28;20047;-78
2024/02/04 04:52:01;;;;;;;0.10;0.10;;;;;;;8.90;70.54;100673.22;10288858;28;20061;-78
2024/02/04 04:57:04;;;;;;;0.20;0.20;;;;;;;8.89;70.62;100677.59;10305896;28;20093;-78
2024/02/04 05:02:06;;;;;;;1.38;0.17;;;;;;;8.84;70.63;100658.66;10315423;28;20038;-78
2024/02/04 05:07:08;;;;;;;0.20;0.20;;;;;;;8.97;70.22;100669.47;10304989;28;20050;-78
2024/02/04 05:12:11;;;;;;;0.13;0.13;;;;;;;8.82;70.54;100666.56;10311719;28;20054;-78
2024/02/04 05:17:13;;;;;;;0.20;0.20;;;;;;;8.99;70.07;100668.50;10301690;28;20151;-77
2024/02/04 05:22:15;;;;;;;0.13;0.13;;;;;;;9.06;70.00;100696.00;10322294;28;20069;-78
2024/02/04 05:27:20;;;;;;;0.17;0.17;;;;;;;8.99;70.00;100694.56;10312381;28;20058;-78
2024/02/04 05:32:22;;;;;;;0.40;0.40;;;;;;;9.00;69.99;100684.97;10314171;28;20077;-77
2024/02/04 05:37:24;;;;;;;0.25;0.20;;;;;;;8.92;70.18;100667.03;10317885;28;20062;-78
2024/02/04 05:42:26;;;;;;;0.40;0.40;;;;;;;8.93;70.14;100663.53;10323196;28;20956;-77
2024/02/04 05:47:28;;;;;;;0.30;0.30;;;;;;;9.04;69.96;100671.72;10300124;28;20050;-77
2024/02/04 05:52:31;;;;;;;0.17;0.17;;;;;;;8.97;69.67;100667.69;10326638;28;20046;-77
2024/02/04 05:57:33;;;;;;;0.30;0.30;;;;;;;8.99;69.67;100658.06;10325773;28;20053;-77
2024/02/04 06:02:36;;;;;;;0.88;0.43;;;;;;;9.08;69.45;100657.66;10304354;28;20112;-77
2024/02/04 06:07:39;;;;;;;0.20;0.20;;;;;;;9.09;69.29;100668.94;10303298;28;20057;-78
2024/02/04 06:12:45;;;;;;;0.13;0.13;;;;;;;9.10;69.35;100661.03;10286947;28;20058;-77
2024/02/04 06:17:47;;;;;;;0.20;0.20;;;;;;;9.12;68.93;100667.03;10301191;28;20048;-78
2024/02/04 06:22:49;;;;;;;0.98;0.10;;;;;;;9.08;68.79;100657.66;10326214;28;20428;-77
2024/02/04 06:27:51;;;;;;;0.30;0.30;;;;;;;9.16;68.62;100657.31;10315491;28;20046;-77
2024/02/04 06:32:54;;;;;;;0.20;0.20;;;;;;;9.13;68.66;100660.94;10318027;28;20094;-78
2024/02/04 06:37:56;;;;;;;0.20;0.20;;;;;;;9.22;68.62;100670.13;10292687;28;20082;-78
2024/02/04 06:43:02;;;;;;;0.20;0.20;;;;;;;9.06;69.27;100658.63;10314087;28;20504;-77
2024/02/04 06:48:05;;;;;;;0.10;0.10;;;;;;;9.02;69.61;100641.41;10323034;28;20112;-77
2024/02/04 06:53:07;;;;;;;0.30;0.30;;;;;;;8.91;69.94;100638.41;10322946;28;20105;-77
2024/02/04 06:58:09;;;;;;;1.55;0.30;;;;;;;8.90;70.19;100658.41;10311077;28;20081;-77
2024/02/04 07:03:11;;;;;;;0.28;0.28;;;;;;;9.05;69.44;100654.31;10312364;28;20444;-77
2024/02/04 07:08:14;;;;;;;0.20;0.20;;;;;;;9.17;68.89;100666.84;10298607;28;20073;-78
2024/02/04 07:13:16;;;;;;;0.85;0.55;;;;;;;9.25;68.94;100667.38;10298000;28;20471;-78
2024/02/04 07:18:21;;;;;;;0.17;0.17;;;;;;;8.93;69.50;100645.25;10291736;28;20042;-76
2024/02/04 07:23:24;;;;;;;0.40;0.40;;;;;;;9.00;69.64;100654.50;10332194;28;20058;-77
2024/02/04 07:28:26;;;;;;;0.20;0.20;;;;;;;9.22;69.08;100657.09;10321676;28;20053;-77
2024/02/04 07:33:28;;;;;;;0.20;0.20;;;;;;;9.34;68.55;100653.94;10320235;28;20435;-77
2024/02/04 07:38:33;;;;;;;0.32;0.20;;;;;;;9.27;68.71;100658.56;10311108;28;20057;-77
2024/02/04 07:43:35;;;;;;;0.20;0.20;;;;;;;9.19;69.26;100676.31;10312708;28;20423;-77
2024/02/04 07:48:38;;;;;;;0.20;0.20;;;;;;;9.22;69.14;100668.34;10291035;28;20050;-78
2024/02/04 07:53:40;;;;;;;1.17;0.55;;;;;;;9.40;68.80;100674.56;10293043;28;20069;-78
2024/02/04 07:58:42;;;;;;;0.35;0.32;;;;;;;9.30;68.68;100653.22;10279877;28;20519;-77
2024/02/04 08:03:46;;;;;;;0.10;0.10;;;;;;;9.41;68.72;100655.38;10284496;28;20508;-77
2024/02/04 08:08:48;;;;;;;0.28;0.28;;;;;;;9.40;68.57;100646.66;10266140;28;20141;-76
2024/02/04 08:13:52;;;;;;;0.57;0.55;;;;;;;9.48;68.46;100654.19;10270561;28;20063;-76
2024/02/04 08:18:55;;;;;;;0.43;0.43;;;;;;;9.47;68.52;100648.13;10254408;28;20531;-77
2024/02/04 08:23:57;;;;;;;0.30;0.30;;;;;;;9.45;68.36;100647.34;10278565;28;20059;-77
2024/02/04 08:28:59;;;;;;;0.45;0.43;;;;;;;9.56;68.05;100637.25;10258947;28;20098;-76
2024/02/04 08:34:02;;;;;;;0.28;0.17;;;;;;;9.55;68.54;100658.22;10276899;28;20082;-76
2024/02/04 08:39:04;;;;;;;0.40;0.40;;;;;;;9.53;68.74;100654.81;10258410;28;20051;-76
2024/02/04 08:44:06;;;;;;;0.30;0.30;;;;;;;9.63;68.63;100636.06;10293123;28;20058;-74
2024/02/04 08:49:12;;;;;;;0.43;0.20;;;;;;;9.54;69.02;100636.47;10285341;28;20063;-75
2024/02/04 08:54:14;;;;;;;0.63;0.40;;;;;;;9.55;68.87;100659.06;10297678;28;20046;-75
2024/02/04 08:59:16;;;;;;;0.55;0.50;;;;;;;9.67;68.52;100647.25;10350990;28;20080;-75
2024/02/04 09:04:19;;;;;;;0.40;0.40;;;;;;;9.46;68.75;100640.34;10363215;28;20064;-75
2024/02/04 09:09:21;;;;;;;0.90;0.70;;;;;;;9.68;68.39;100635.91;10316035;28;20381;-76
2024/02/04 09:14:23;;;;;;;0.32;0.32;;;;;;;9.92;67.86;100639.16;10317576;28;20038;-75
2024/02/04 09:19:25;;;;;;;0.30;0.30;;;;;;;10.15;67.37;100649.41;10318381;28;20153;-75
2024/02/04 09:24:28;;;;;;;0.20;0.20;;;;;;;10.22;66.95;100641.19;10307646;28;20050;-76
2024/02/04 09:29:30;;;;;;;0.52;0.40;;;;;;;10.20;67.35;100648.28;10324390;28;20085;-76
2024/02/04 09:34:32;;;;;;;0.30;0.30;;;;;;;10.07;67.73;100635.84;10315742;28;20046;-76
2024/02/04 09:39:34;;;;;;;0.52;0.40;;;;;;;10.02;68.03;100641.28;10291986;28;20050;-76
2024/02/04 09:44:38;;;;;;;2.60;1.30;;;;;;;10.07;68.20;100630.63;10339328;28;20511;-75
2024/02/04 09:49:41;;;;;;;4.15;2.25;;;;;;;10.26;67.59;100637.53;10305617;28;20057;-76
2024/02/04 09:54:45;;;;;;;1.42;0.88;;;;;;;10.07;67.91;100657.63;10307159;28;20155;-76
2024/02/04 09:59:48;;;;;;;0.40;0.40;;;;;;;10.31;68.03;100648.63;10316062;28;20042;-75
2024/02/04 10:04:50;;;;;;;0.65;0.50;;;;;;;10.17;68.57;100653.66;10329512;28;20834;-75
2024/02/04 10:09:53;;;;;;;0.22;0.22;;;;;;;10.44;67.85;100654.94;10296455;28;20061;-75
2024/02/04 10:14:55;;;;;;;0.20;0.20;;;;;;;10.34;67.87;100658.91;10333222;28;20094;-75
2024/02/04 10:19:57;;;;;;;0.73;0.50;;;;;;;10.26;68.27;100662.81;10316241;28;20118;-75
2024/02/04 10:25:10;;;;;;;0.50;0.50;;;;;;;9.97;69.18;100660.72;10318075;28;20046;-74
2024/02/04 10:30:14;;;;;;;0.25;0.25;;;;;;;10.08;69.07;100658.44;10316592;28;20532;-76
2024/02/04 10:35:18;;;;;;;0.28;0.28;;;;;;;10.28;68.51;100653.97;10324808;28;20055;-75
2024/02/04 10:40:20;;;;;;;0.30;0.30;;;;;;;10.18;68.54;100654.47;10310798;28;20143;-75
2024/02/04 10:45:30;;;;;;;0.50;0.50;;;;;;;10.24;68.24;100643.72;10314857;28;20168;-75
2024/02/04 10:50:36;;;;;;;0.20;0.20;;;;;;;10.07;68.82;100620.19;10292713;28;20057;-75
2024/02/04 10:55:44;;;;;;;1.00;0.30;;;;;;;10.09;68.80;100621.81;10304755;28;20149;-75
2024/02/04 11:00:47;;;;;;;0.20;0.20;;;;;;;10.20;68.50;100603.84;10309662;28;20050;-75
2024/02/04 11:05:51;;;;;;;0.30;0.30;;;;;;;10.28;68.00;100619.16;10332933;28;20058;-75
2024/02/04 11:10:53;;;;;;;0.20;0.20;;;;;;;10.58;67.63;100616.84;10313166;28;20042;-76
2024/02/04 11:15:58;;;;;;;0.65;0.38;;;;;;;10.78;67.13;100620.16;10299090;28;20057;-78
2024/02/04 11:21:41;;;;;;;0.55;0.32;;;;;;;10.45;67.38;100612.22;10306205;28;20057;-79
2024/02/04 11:26:44;;;;;;;0.43;0.43;;;;;;;10.48;67.69;100611.22;10320543;28;20085;-77
2024/02/04 11:31:46;;;;;;;0.20;0.15;;;;;;;10.44;67.68;100618.34;10337687;28;21026;-77
2024/02/04 11:36:49;;;;;;;0.60;0.60;;;;;;;10.61;67.31;100617.53;10314310;28;20053;-78
2024/02/04 11:41:51;;;;;;;0.10;0.10;;;;;;;10.43;67.15;100610.56;10335015;28;20205;-78
2024/02/04 11:46:55;;;;;;;0.40;0.40;;;;;;;10.60;67.39;100586.22;10320395;28;20030;-78
2024/02/04 11:51:57;;;;;;;0.77;0.77;;;;;;;10.50;67.71;100585.84;10319643;28;20060;-78
2024/02/04 11:57:00;;;;;;;0.30;0.30;;;;;;;10.47;67.86;100572.91;10315976;28;20879;-78
2024/02/04 12:02:06;;;;;;;0.35;0.35;;;;;;;10.17;68.96;100564.78;10304275;28;20896;-78
2024/02/04 12:07:08;;;;;;;1.00;0.70;;;;;;;10.47;67.87;100575.50;10318842;28;20061;-78
2024/02/04 12:12:11;;;;;;;1.40;0.88;;;;;;;10.38;67.91;100579.41;10300166;28;20715;-78
2024/02/04 12:17:13;;;;;;;0.52;0.50;;;;;;;10.40;67.96;100561.03;10274229;28;20058;-78
2024/02/04 12:22:16;;;;;;;0.32;0.32;;;;;;;10.43;68.04;100542.59;10284768;28;20073;-77
2024/02/04 12:27:18;;;;;;;0.30;0.30;;;;;;;10.44;68.51;100557.34;10312829;28;20050;-78
2024/02/04 12:32:20;;;;;;;1.98;0.30;;;;;;;10.43;68.53;100555.66;10313545;28;20062;-78
2024/02/04 12:37:22;;;;;;;1.00;0.50;;;;;;;10.50;67.96;100526.50;10332514;28;20141;-78
2024/02/04 12:42:25;;;;;;;0.20;0.20;;;;;;;10.37;68.73;100535.06;10316123;28;20546;-78
2024/02/04 12:47:28;;;;;;;0.30;0.30;;;;;;;10.52;68.35;100534.31;10335439;28;20603;-77
2024/02/04 12:52:35;;;;;;;0.30;0.30;;;;;;;10.52;68.46;100532.50;10331632;28;20509;-77
2024/02/04 12:57:37;;;;;;;0.30;0.25;;;;;;;10.56;68.71;100535.00;10300001;28;20069;-77
2024/02/04 13:02:39;;;;;;;0.40;0.40;;;;;;;10.68;68.10;100540.47;10309296;28;20050;-80
2024/02/04 13:07:42;;;;;;;0.32;0.32;;;;;;;10.62;68.37;100525.06;10309767;28;20389;-79
2024/02/04 13:12:44;;;;;;;0.98;0.52;;;;;;;10.71;68.18;100532.44;10290975;28;20058;-79
2024/02/04 13:17:47;;;;;;;0.40;0.40;;;;;;;10.78;68.34;100512.91;10294492;28;20066;-79
2024/02/04 13:22:53;;;;;;;0.28;0.28;;;;;;;10.96;68.10;100505.84;10308914;28;20064;-80
2024/02/04 13:27:56;;;;;;;0.25;0.25;;;;;;;10.81;68.25;100494.41;10311920;28;20082;-78
2024/02/04 13:32:58;;;;;;;0.20;0.20;;;;;;;10.83;68.27;100502.16;10324592;28;20892;-79
2024/02/04 13:38:00;;;;;;;1.13;0.32;;;;;;;10.68;68.44;100508.22;10321799;28;20054;-78
2024/02/04 13:43:02;;;;;;;0.22;0.20;;;;;;;10.48;69.11;100515.28;10312046;28;20427;-78
2024/02/04 13:48:05;;;;;;;0.38;0.38;;;;;;;10.64;68.61;100512.75;10315219;28;20129;-78
2024/02/04 13:53:07;;;;;;;0.32;0.20;;;;;;;10.80;67.83;100511.06;10307582;28;20486;-78
2024/02/04 13:58:09;;;;;;;0.65;0.50;;;;;;;10.59;68.58;100506.91;10343903;28;20046;-78
2024/02/04 14:03:15;;;;;;;0.30;0.30;;;;;;;10.47;69.15;100505.75;10373200;28;20072;-77
2024/02/04 14:08:17;;;;;;;0.43;0.40;;;;;;;10.39;69.69;100517.50;10325400;28;20066;-78
2024/02/04 14:13:19;;;;;;;0.35;0.35;;;;;;;10.35;69.57;100509.00;10304883;28;20139;-78
2024/02/04 14:18:21;;;;;;;0.47;0.47;;;;;;;10.27;69.69;100512.91;10342523;28;20420;-78
2024/02/04 14:23:23;;;;;;;2.15;0.82;;;;;;;10.19;70.41;100515.03;10323094;28;20058;-78
2024/02/04 14:28:25;;;;;;;0.30;0.30;;;;;;;10.27;69.98;100512.91;10325031;28;20068;-78
2024/02/04 14:33:28;;;;;;;0.20;0.20;;;;;;;10.16;70.52;100512.56;10306846;28;20157;-78
2024/02/04 14:38:31;;;;;;;0.52;0.40;;;;;;;10.17;70.68;100516.88;10322294;28;20053;-78
2024/02/04 14:43:35;;;;;;;0.57;0.52;;;;;;;10.09;71.05;100514.66;10326913;28;20054;-78
2024/02/04 14:48:37;;;;;;;1.42;0.90;;;;;;;10.07;71.16;100524.34;10321418;28;20058;-78
2024/02/04 14:53:44;;;;;;;0.45;0.45;;;;;;;10.17;70.46;100532.56;10321197;28;20420;-78
2024/02/04 14:58:46;;;;;;;0.30;0.30;;;;;;;10.12;70.78;100534.53;10294972;28;20057;-78
2024/02/04 15:03:48;;;;;;;0.28;0.28;;;;;;;10.10;70.60;100515.47;10312279;28;20057;-78
2024/02/04 15:08:50;;;;;;;0.20;0.20;;;;;;;10.17;70.40;100519.50;10294070;28;20121;-78
2024/02/04 15:13:53;;;;;;;0.30;0.30;;;;;;;10.18;70.40;100521.16;10294567;28;20425;-78
2024/02/04 15:18:55;;;;;;;0.30;0.30;;;;;;;10.14;70.35;100527.47;10323058;28;20069;-78
2024/02/04 15:24:03;;;;;;;0.20;0.20;;;;;;;10.14;70.63;100525.72;10299720;28;20516;-79
2024/02/04 15:29:06;;;;;;;0.30;0.30;;;;;;;10.16;70.35;100521.25;10310390;28;20054;-79
2024/02/04 15:34:08;;;;;;;0.30;0.30;;;;;;;10.03;70.79;100509.72;10328075;28;20998;-79
2024/02/04 15:39:11;;;;;;;0.22;0.22;;;;;;;10.06;70.46;100491.25;10321536;28;20075;-78
2024/02/04 15:44:13;;;;;;;0.22;0.22;;;;;;;10.03;70.61;100477.50;10305552;28;20054;-78
2024/02/04 15:49:20;;;;;;;0.30;0.30;;;;;;;10.06;70.83;100500.88;10307025;28;20051;-79
2024/02/04 15:54:27;;;;;;;2.38;0.60;;;;;;;10.02;70.63;100502.78;10309260;28;20150;-79
2024/02/04 15:59:39;;;;;;;0.63;0.50;;;;;;;10.12;70.41;100504.03;10319530;28;20074;-79
2024/02/04 16:04:42;;;;;;;1.05;0.95;;;;;;;10.17;70.29;100498.59;10307768;28;21049;-79
2024/02/04 16:09:48;;;;;;;1.05;1.00;;;;;;;10.16;70.24;100496.88;10308898;28;20125;-79
2024/02/04 16:14:51;;;;;;;0.40;0.40;;;;;;;10.04;70.44;100487.03;10274162;28;20525;-79
2024/02/04 16:19:54;;;;;;;1.73;0.40;;;;;;;10.19;70.03;100488.91;10318682;28;20039;-79
2024/02/04 16:24:56;;;;;;;0.40;0.40;;;;;;;10.21;69.65;100481.84;10301319;28;20058;-79
2024/02/04 16:29:58;;;;;;;1.10;0.93;;;;;;;10.35;69.40;100487.22;10319035;28;20043;-79
2024/02/04 16:35:00;;;;;;;0.73;0.70;;;;;;;10.23;69.58;100488.69;10308854;28;20064;-79
2024/02/04 16:40:04;;;;;;;0.60;0.50;;;;;;;10.31;69.30;100496.13;10312355;28;20042;-79
2024/02/04 16:45:07;;;;;;;1.20;0.68;;;;;;;10.44;68.97;100484.13;10319259;28;20678;-79
2024/02/04 16:50:10;;;;;;;0.45;0.40;;;;;;;10.38;68.96;100487.91;10317948;28;20145;-79
2024/02/04 16:55:12;;;;;;;0.38;0.38;;;;;;;10.26;68.66;100485.91;10305810;28;20530;-79
2024/02/04 17:00:15;;;;;;;0.82;0.75;;;;;;;10.22;69.07;100473.91;10307231;28;20069;-79
2024/02/04 17:05:19;;;;;;;1.65;0.80;;;;;;;10.37;68.58;100467.06;10305650;28;20050;-78
2024/02/04 17:10:22;;;;;;;1.38;0.90;;;;;;;10.41;68.33;100466.00;10308635;28;20510;-78
2024/02/04 17:15:25;;;;;;;0.30;0.30;;;;;;;10.39;68.32;100478.28;10290036;28;20058;-79
2024/02/04 17:20:31;;;;;;;1.35;0.80;;;;;;;10.32;68.21;100464.69;10321617;28;20507;-79
2024/02/04 17:25:38;;;;;;;0.50;0.50;;;;;;;10.45;68.03;100455.31;10314993;28;20062;-79
2024/02/04 17:30:40;;;;;;;2.60;1.20;;;;;;;10.29;67.59;100451.78;10305796;28;20129;-79
2024/02/04 17:35:47;;;;;;;3.55;1.25;;;;;;;10.35;67.78;100427.94;10293148;28;20476;-79
2024/02/04 17:40:50;;;;;;;1.95;0.63;;;;;;;10.39;67.41;100421.63;10308884;28;20051;-79
2024/02/04 17:45:52;;;;;;;1.35;0.60;;;;;;;10.37;67.35;100406.94;10299879;28;20712;-78
2024/02/04 17:50:54;;;;;;;1.50;0.63;;;;;;;10.48;66.72;100425.53;10304292;28;20122;-78
2024/02/04 17:56:17;;;;;;;0.77;0.70;;;;;;;10.39;66.60;100423.38;10319469;28;20051;-78
2024/02/04 18:01:21;;;;;;;0.52;0.52;;;;;;;10.49;66.34;100448.13;10306885;28;20952;-78
2024/02/04 18:06:25;;;;;;;0.30;0.30;;;;;;;10.42;66.09;100441.53;10304972;28;20061;-79
2024/02/04 18:11:27;;;;;;;0.40;0.40;;;;;;;10.60;66.40;100440.59;10306086;28;20413;-78
2024/02/04 18:16:29;;;;;;;0.60;0.60;;;;;;;10.55;65.74;100439.13;10274261;28;20066;-78
2024/02/04 18:21:31;;;;;;;1.10;0.70;;;;;;;10.60;65.60;100451.06;10315230;28;20141;-78
2024/02/04 18:26:34;;;;;;;1.45;0.75;;;;;;;10.74;65.26;100445.09;10292770;28;20084;-78
2024/02/04 18:31:37;;;;;;;0.45;0.45;;;;;;;10.55;64.97;100447.81;10313694;28;20042;-78
2024/02/04 18:36:39;;;;;;;0.40;0.30;;;;;;;10.50;65.49;100434.16;10323454;28;20056;-78
2024/02/04 18:41:45;;;;;;;0.70;0.60;;;;;;;10.41;65.12;100435.47;10311772;28;20086;-78
2024/02/04 18:46:47;;;;;;;0.60;0.60;;;;;;;10.44;64.54;100431.81;10322260;28;20054;-78
2024/02/04 18:51:50;;;;;;;0.75;0.70;;;;;;;10.45;64.71;100438.75;10322117;28;20141;-78
2024/02/04 18:56:52;;;;;;;0.30;0.30;;;;;;;10.50;64.70;100439.38;10322227;28;20385;-78
2024/02/04 19:01:54;;;;;;;0.22;0.20;;;;;;;10.54;64.05;100429.59;10303982;28;20050;-79
2024/02/04 19:06:59;;;;;;;0.60;0.60;;;;;;;10.37;64.10;100413.03;10307248;28;20070;-80
2024/02/04 19:12:02;;;;;;;0.68;0.65;;;;;;;10.36;64.26;100420.91;10314560;28;20144;-78
2024/02/04 19:17:05;;;;;;;1.08;0.80;;;;;;;10.53;64.08;100426.13;10305766;28;20058;-82
2024/02/04 19:22:07;;;;;;;1.70;1.00;;;;;;;10.32;63.98;100428.06;10299207;28;20054;-82
2024/02/04 19:27:10;;;;;;;1.40;0.90;;;;;;;10.31;64.30;100420.31;10319480;28;20049;-82
2024/02/04 19:32:12;;;;;;;1.35;0.70;;;;;;;10.31;64.32;100415.94;10312362;28;20050;-82
2024/02/04 19:37:15;;;;;;;0.88;0.70;;;;;;;10.38;64.02;100419.91;10293147;28;20065;-82
2024/02/04 19:42:17;;;;;;;0.88;0.70;;;;;;;10.49;63.97;100433.31;10307841;28;20420;-82
2024/02/04 19:47:23;;;;;;;2.03;1.20;;;;;;;10.38;64.01;100419.06;10295677;28;20050;-81
2024/02/04 19:52:25;;;;;;;1.15;1.00;;;;;;;10.37;63.76;100420.00;10335803;28;20554;-82
2024/02/04 19:57:28;;;;;;;0.77;0.55;;;;;;;10.29;63.82;100420.41;10328892;28;20053;-81
2024/02/04 20:02:30;;;;;;;0.73;0.52;;;;;;;10.29;64.02;100409.94;10314109;28;20415;-82
2024/02/04 20:07:33;;;;;;;0.32;0.32;;;;;;;10.22;63.75;100415.53;10320945;28;20054;-81
2024/02/04 20:12:35;;;;;;;0.40;0.40;;;;;;;10.42;63.73;100407.53;10320676;28;20061;-81
2024/02/04 20:17:37;;;;;;;0.50;0.50;;;;;;;10.43;63.18;100427.53;10311669;28;20069;-81
2024/02/04 20:22:40;;;;;;;0.20;0.20;;;;;;;10.37;63.34;100430.47;10295718;28;20050;-82
2024/02/04 20:27:42;;;;;;;0.30;0.30;;;;;;;10.40;63.04;100440.75;10319765;28;20579;-81
2024/02/04 20:32:45;;;;;;;0.60;0.60;;;;;;;10.35;63.24;100455.84;10308137;28;20072;-81
2024/02/04 20:37:48;;;;;;;0.50;0.50;;;;;;;10.44;63.00;100463.19;10307804;28;20062;-81
2024/02/04 20:42:50;;;;;;;0.30;0.30;;;;;;;10.52;62.89;100478.53;10315751;28;20057;-81
2024/02/04 20:47:53;;;;;;;0.20;0.20;;;;;;;10.36;62.78;100470.59;10319930;28;20062;-81
2024/02/04 20:52:55;;;;;;;0.20;0.20;;;;;;;10.41;63.12;100479.06;10307916;28;20657;-81
2024/02/04 20:57:57;;;;;;;0.75;0.57;;;;;;;10.44;62.82;100465.81;10306327;28;20057;-81
2024/02/04 21:03:00;;;;;;;0.30;0.30;;;;;;;10.37;62.91;100467.94;10320445;28;20074;-81
2024/02/04 21:08:07;;;;;;;0.30;0.30;;;;;;;10.29;63.02;100467.47;10308545;28;20069;-81
2024/02/04 21:13:11;;;;;;;0.30;0.30;;;;;;;10.37;63.05;100462.69;10307783;28;20046;-81
2024/02/04 21:18:13;;;;;;;0.30;0.30;;;;;;;10.22;63.38;100470.44;10319090;28;20105;-81
2024/02/04 21:23:16;;;;;;;0.60;0.43;;;;;;;10.26;63.54;100464.13;10307952;28;20042;-81
2024/02/04 21:28:19;;;;;;;0.25;0.25;;;;;;;10.17;63.93;100448.94;10321774;28;20463;-81
2024/02/04 21:33:21;;;;;;;0.30;0.30;;;;;;;9.93;65.00;100432.66;10289897;28;20436;-81
2024/02/04 21:38:23;;;;;;;0.20;0.20;;;;;;;9.93;65.09;100434.47;10291860;28;20153;-81
2024/02/04 21:43:26;;;;;;;0.17;0.17;;;;;;;9.96;64.64;100434.28;10305215;28;20049;-80
2024/02/04 21:48:28;;;;;;;0.20;0.20;;;;;;;9.85;64.72;100426.16;10307730;28;20062;-81
2024/02/04 21:53:30;;;;;;;0.57;0.38;;;;;;;10.01;64.51;100422.69;10325383;28;20057;-81
2024/02/04 21:58:33;;;;;;;0.20;0.20;;;;;;;10.04;64.16;100414.72;10337837;28;20133;-81
2024/02/04 22:03:35;;;;;;;0.52;0.38;;;;;;;10.13;64.10;100416.88;10327437;28;20073;-81
2024/02/04 22:08:38;;;;;;;0.47;0.40;;;;;;;10.07;63.86;100419.81;10313548;28;20296;-81
2024/02/04 22:13:40;;;;;;;0.82;0.82;;;;;;;10.11;63.74;100412.66;10296918;28;20081;-81
2024/02/04 22:18:42;;;;;;;1.92;0.50;;;;;;;10.17;63.64;100405.34;10301525;28;20128;-81
2024/02/04 22:23:45;;;;;;;0.10;0.10;;;;;;;10.06;63.87;100414.63;10313791;28;20401;-81
2024/02/04 22:28:47;;;;;;;0.40;0.38;;;;;;;10.12;63.83;100412.56;10323492;28;20522;-81
2024/02/04 22:33:50;;;;;;;0.15;0.15;;;;;;;10.21;63.43;100400.81;10314896;28;20583;-81
2024/02/04 22:38:53;;;;;;;0.30;0.30;;;;;;;10.17;63.20;100401.88;10313412;28;20058;-80
2024/02/04 22:43:56;;;;;;;0.30;0.30;;;;;;;10.23;63.43;100406.78;10322012;28;20542;-80
2024/02/04 22:49:00;;;;;;;0.20;0.20;;;;;;;10.19;63.22;100403.50;10296171;28;20054;-80
2024/02/04 22:54:04;;;;;;;0.57;0.57;;;;;;;10.15;63.36;100408.94;10314356;28;20082;-80
2024/02/04 22:59:07;;;;;;;0.20;0.20;;;;;;;10.27;63.37;100410.94;10324098;28;20153;-81
2024/02/04 23:04:11;;;;;;;0.30;0.30;;;;;;;10.20;63.49;100409.53;10325250;28;20043;-80
2024/02/04 23:09:13;;;;;;;0.65;0.57;;;;;;;10.01;63.71;100396.56;10314003;28;20094;-80
2024/02/04 23:14:15;;;;;;;0.30;0.30;;;;;;;10.08;63.49;100391.88;10312191;28;20046;-80
2024/02/04 23:19:19;;;;;;;0.30;0.30;;;;;;;10.10;63.72;100403.94;10317183;28;20070;-81